Time;durP1;ratioP1;P1;durP2;ratioP2;P2;SDS_P1;SDS_P2;PMS_P1;PMS_P2;Temp;Humidity;BMP_temperature;BMP_pressure;BME280_temperature;BME280_humidity;BME280_pressure;Samples;Min_cycle;Max_cycle;Signal;HPM_P1;HPM_P2
2023/01/11 00:01:57;;;;;;;1.07;0.80;;;;;;;;;;4999918;28;20865;-72
2023/01/11 00:04:28;;;;;;;2.10;0.87;;;;;;;;;;5001960;28;20300;-72
2023/01/11 00:06:54;;;;;;;1.10;0.63;;;;;;;;;;5015313;28;20300;-73
2023/01/11 00:09:19;;;;;;;1.25;0.80;;;;;;;;;;5007208;28;20106;-72
2023/01/11 00:11:44;;;;;;;1.33;0.80;;;;;;;;;;5005966;28;20665;-73
2023/01/11 00:14:09;;;;;;;1.43;0.70;;;;;;;;;;4981137;28;20030;-73
2023/01/11 00:16:35;;;;;;;1.23;0.60;;;;;;;;;;5000332;28;20372;-73
2023/01/11 00:19:00;;;;;;;1.63;0.70;;;;;;;;;;5004943;28;21005;-73
2023/01/11 00:21:25;;;;;;;1.50;0.65;;;;;;;;;;5028083;28;20318;-73
2023/01/11 00:23:51;;;;;;;0.80;0.60;;;;;;;;;;5005402;28;20785;-72
2023/01/11 00:26:16;;;;;;;1.43;0.80;;;;;;;;;;5015254;28;20489;-72
2023/01/11 00:28:41;;;;;;;1.10;0.65;;;;;;;;;;5024395;28;20319;-73
2023/01/11 00:31:07;;;;;;;1.15;0.70;;;;;;;;;;5002389;28;20540;-73
2023/01/11 00:33:32;;;;;;;1.52;0.75;;;;;;;;;;5004065;28;20029;-73
2023/01/11 00:35:57;;;;;;;1.50;0.80;;;;;;;;;;5001132;28;20030;-73
2023/01/11 00:49:18;;;;;;;1.00;0.70;;;;;;;;;;4997658;28;20057;-73
2023/01/11 00:51:43;;;;;;;1.10;0.70;;;;;;;;;;5030258;28;20053;-73
2023/01/11 00:54:08;;;;;;;1.10;0.60;;;;;;;;;;5008449;28;20530;-73
2023/01/11 00:56:34;;;;;;;1.27;0.77;;;;;;;;;;5013964;28;20294;-73
2023/01/11 00:59:00;;;;;;;1.80;0.90;;;;;;;;;;5007342;28;20334;-72
2023/01/11 01:01:25;;;;;;;0.93;0.68;;;;;;;;;;4995168;28;20042;-72
2023/01/11 01:03:50;;;;;;;1.43;0.80;;;;;;;;;;5008450;28;20025;-75
2023/01/11 01:06:15;;;;;;;1.43;0.77;;;;;;;;;;5013859;28;20312;-74
2023/01/11 01:08:41;;;;;;;1.37;0.70;;;;;;;;;;5004272;28;20033;-73
2023/01/11 01:11:06;;;;;;;1.33;0.70;;;;;;;;;;4992662;28;20308;-73
2023/01/11 01:16:15;;;;;;;1.15;0.70;;;;;;;;;;4991304;28;20614;-73
2023/01/11 01:18:40;;;;;;;1.37;0.70;;;;;;;;;;5021793;28;20017;-72
2023/01/11 01:21:05;;;;;;;0.90;0.60;;;;;;;;;;5001979;28;20549;-73
2023/01/11 01:23:31;;;;;;;1.60;0.77;;;;;;;;;;5002374;28;20111;-72
2023/01/11 01:25:56;;;;;;;1.00;0.60;;;;;;;;;;4999853;28;20090;-74
2023/01/11 01:28:21;;;;;;;1.13;0.70;;;;;;;;;;5000046;28;20282;-73
2023/01/11 01:30:50;;;;;;;1.10;0.60;;;;;;;;;;4998608;28;20323;-73
2023/01/11 01:33:15;;;;;;;0.82;0.60;;;;;;;;;;5000276;28;20280;-72
2023/01/11 01:35:40;;;;;;;1.10;0.60;;;;;;;;;;5000763;28;20030;-73
2023/01/11 01:38:05;;;;;;;1.40;1.00;;;;;;;;;;5002073;28;20177;-72
2023/01/11 01:40:31;;;;;;;1.65;0.80;;;;;;;;;;4992742;28;20038;-72
2023/01/11 01:42:56;;;;;;;1.10;0.60;;;;;;;;;;4998575;28;20675;-72
2023/01/11 01:45:23;;;;;;;0.97;0.60;;;;;;;;;;5003344;28;20284;-72
2023/01/11 01:47:52;;;;;;;1.15;0.60;;;;;;;;;;5003165;28;20281;-72
2023/01/11 01:50:18;;;;;;;1.02;0.60;;;;;;;;;;5003677;28;20060;-73
2023/01/11 01:52:43;;;;;;;0.93;0.63;;;;;;;;;;4996885;28;20508;-72
2023/01/11 01:55:09;;;;;;;1.13;0.60;;;;;;;;;;5001867;28;20273;-72
2023/01/11 01:57:35;;;;;;;1.23;0.80;;;;;;;;;;5001895;28;20010;-74
2023/01/11 02:00:00;;;;;;;1.15;0.68;;;;;;;;;;4989039;28;20378;-72
2023/01/11 02:02:25;;;;;;;1.13;0.68;;;;;;;;;;4994033;28;20042;-72
2023/01/11 02:04:51;;;;;;;1.35;0.68;;;;;;;;;;5012069;28;20047;-72
2023/01/11 02:07:18;;;;;;;1.83;0.75;;;;;;;;;;5018007;28;20045;-72
2023/01/11 02:09:45;;;;;;;0.77;0.50;;;;;;;;;;4998529;28;20050;-72
2023/01/11 02:12:10;;;;;;;0.70;0.55;;;;;;;;;;5008623;28;20049;-72
2023/01/11 02:14:36;;;;;;;1.53;0.97;;;;;;;;;;4989788;28;20474;-73
2023/01/11 02:17:01;;;;;;;1.17;0.70;;;;;;;;;;4998066;28;20293;-72
2023/01/11 02:19:45;;;;;;;0.98;0.60;;;;;;;;;;5004765;28;20536;-73
2023/01/11 02:22:13;;;;;;;1.27;0.70;;;;;;;;;;4990453;28;20145;-73
2023/01/11 02:24:41;;;;;;;1.30;0.75;;;;;;;;;;5004617;28;20593;-72
2023/01/11 02:27:30;;;;;;;1.23;0.60;;;;;;;;;;5003709;28;20037;-72
2023/01/11 02:30:05;;;;;;;1.15;0.60;;;;;;;;;;4994631;28;20029;-72
2023/01/11 02:32:49;;;;;;;0.75;0.40;;;;;;;;;;5000331;28;20311;-72
2023/01/11 02:35:17;;;;;;;0.93;0.60;;;;;;;;;;5005275;28;20314;-73
2023/01/11 02:38:01;;;;;;;1.17;0.63;;;;;;;;;;5006674;28;20030;-72
2023/01/11 02:40:28;;;;;;;1.10;0.63;;;;;;;;;;5021231;28;20121;-72
2023/01/11 02:46:10;;;;;;;1.17;0.70;;;;;;;;;;4960373;28;20015;-73
2023/01/11 02:48:40;;;;;;;1.63;0.90;;;;;;;;;;4961191;28;20072;-74
2023/01/11 02:51:15;;;;;;;0.90;0.60;;;;;;;;;;4967485;28;20264;-72
2023/01/11 02:53:48;;;;;;;1.10;0.60;;;;;;;;;;5009810;28;20033;-74
2023/01/11 02:56:17;;;;;;;0.98;0.60;;;;;;;;;;5014721;28;20036;-72
2023/01/11 02:58:43;;;;;;;0.95;0.70;;;;;;;;;;5016781;28;20121;-72
2023/01/11 03:01:08;;;;;;;0.93;0.60;;;;;;;;;;5004659;28;20484;-71
2023/01/11 03:03:34;;;;;;;1.07;0.70;;;;;;;;;;5004617;28;20045;-69
2023/01/11 03:06:06;;;;;;;1.08;0.75;;;;;;;;;;5006002;28;20056;-72
2023/01/11 03:08:50;;;;;;;1.30;0.60;;;;;;;;;;5004920;28;20092;-72
2023/01/11 03:12:50;;;;;;;0.98;0.50;;;;;;;;;;4998503;28;20163;-72
2023/01/11 03:14:18;;;;;;;2.42;0.70;;;;;;;;;;5004972;28;20789;-72
2023/01/11 03:16:55;;;;;;;1.20;0.57;;;;;;;;;;5019647;28;20082;-72
2023/01/11 03:19:21;;;;;;;1.08;0.80;;;;;;;;;;4994062;28;20097;-72
2023/01/11 03:21:47;;;;;;;1.33;0.60;;;;;;;;;;5003046;28;20493;-72
2023/01/11 03:24:12;;;;;;;1.15;0.68;;;;;;;;;;5004633;28;20290;-72
2023/01/11 03:26:37;;;;;;;1.27;0.50;;;;;;;;;;5001391;28;20034;-72
2023/01/11 03:29:03;;;;;;;1.50;0.52;;;;;;;;;;5004257;28;20042;-72
2023/01/11 03:31:28;;;;;;;0.93;0.70;;;;;;;;;;5002114;28;20513;-72
2023/01/11 03:33:55;;;;;;;1.37;0.70;;;;;;;;;;5004024;28;20053;-73
2023/01/11 03:36:32;;;;;;;1.30;0.80;;;;;;;;;;5005528;28;20051;-73
2023/01/11 03:39:03;;;;;;;1.13;0.60;;;;;;;;;;5002144;28;20061;-74
2023/01/11 03:41:30;;;;;;;1.25;0.93;;;;;;;;;;5007784;28;20512;-71
2023/01/11 03:43:55;;;;;;;1.00;0.55;;;;;;;;;;5009262;28;20042;-71
2023/01/11 03:46:21;;;;;;;0.90;0.50;;;;;;;;;;5008329;28;20085;-72
2023/01/11 03:48:49;;;;;;;1.52;0.73;;;;;;;;;;4986343;28;20033;-73
2023/01/11 03:51:16;;;;;;;1.23;0.55;;;;;;;;;;5005500;28;20030;-72
2023/01/11 03:53:42;;;;;;;1.30;0.70;;;;;;;;;;4995516;28;20121;-73
2023/01/11 03:56:08;;;;;;;1.05;0.70;;;;;;;;;;5001584;28;20184;-73
2023/01/11 03:58:34;;;;;;;1.10;0.70;;;;;;;;;;4984692;28;20537;-73
2023/01/11 04:00:59;;;;;;;1.30;0.75;;;;;;;;;;4997524;28;20056;-73
2023/01/11 04:03:24;;;;;;;0.82;0.52;;;;;;;;;;5023354;28;20099;-73
2023/01/11 04:05:51;;;;;;;0.88;0.60;;;;;;;;;;4990945;28;20062;-73
2023/01/11 04:08:16;;;;;;;1.42;0.73;;;;;;;;;;5014497;28;20045;-73
2023/01/11 04:10:41;;;;;;;1.20;0.70;;;;;;;;;;5016872;28;20112;-73
2023/01/11 04:13:07;;;;;;;1.73;0.70;;;;;;;;;;5013894;28;20272;-72
2023/01/11 04:15:33;;;;;;;1.17;0.77;;;;;;;;;;5004830;28;21335;-73
2023/01/11 04:18:03;;;;;;;1.38;0.80;;;;;;;;;;5016541;28;20337;-73
2023/01/11 04:20:28;;;;;;;;;;;;;;;;;;4994642;28;20038;-73
2023/01/11 04:22:54;;;;;;;1.58;0.65;;;;;;;;;;5010145;28;19929;-73
2023/01/11 04:25:19;;;;;;;1.30;0.80;;;;;;;;;;5002075;28;20511;-73
2023/01/11 04:27:44;;;;;;;1.90;0.80;;;;;;;;;;4992864;28;20309;-73
2023/01/11 04:30:09;;;;;;;1.23;0.63;;;;;;;;;;4996570;28;20105;-73
2023/01/11 04:32:35;;;;;;;1.00;0.63;;;;;;;;;;5015675;28;20120;-73
2023/01/11 04:35:00;;;;;;;1.17;0.70;;;;;;;;;;4986038;28;20476;-72
2023/01/11 04:37:25;;;;;;;1.40;0.70;;;;;;;;;;5004924;28;20421;-72
2023/01/11 04:39:50;;;;;;;1.43;0.70;;;;;;;;;;5019517;28;20666;-72
2023/01/11 04:42:19;;;;;;;1.10;0.60;;;;;;;;;;5000908;28;20293;-72
2023/01/11 04:44:45;;;;;;;1.13;0.70;;;;;;;;;;5002001;28;20125;-73
2023/01/11 04:47:10;;;;;;;1.10;0.80;;;;;;;;;;5016303;28;20511;-72
2023/01/11 04:49:35;;;;;;;0.93;0.60;;;;;;;;;;5002204;28;20030;-73
2023/01/11 04:52:00;;;;;;;1.87;0.70;;;;;;;;;;5004217;28;20312;-74
2023/01/11 04:54:26;;;;;;;1.07;0.70;;;;;;;;;;5013078;28;21016;-74
2023/01/11 04:56:51;;;;;;;1.20;0.80;;;;;;;;;;5022922;28;20291;-73
2023/01/11 04:59:16;;;;;;;1.40;0.83;;;;;;;;;;4979371;28;20051;-73
2023/01/11 05:01:41;;;;;;;1.63;0.80;;;;;;;;;;5006640;28;20826;-73
2023/01/11 05:04:06;;;;;;;1.37;0.70;;;;;;;;;;5009504;28;20687;-72
2023/01/11 05:06:32;;;;;;;1.20;0.70;;;;;;;;;;5011998;28;20416;-71
2023/01/11 05:08:57;;;;;;;1.03;0.70;;;;;;;;;;5023427;28;20272;-72
2023/01/11 05:11:22;;;;;;;1.27;0.80;;;;;;;;;;5015960;28;20053;-72
2023/01/11 05:13:47;;;;;;;1.50;0.70;;;;;;;;;;5003091;28;20034;-72
2023/01/11 05:16:19;;;;;;;1.23;0.68;;;;;;;;;;4995953;28;20038;-72
2023/01/11 05:18:45;;;;;;;1.13;0.68;;;;;;;;;;5023558;28;20126;-72
2023/01/11 05:21:11;;;;;;;1.30;0.77;;;;;;;;;;5015045;28;20050;-72
2023/01/11 05:23:37;;;;;;;1.23;0.70;;;;;;;;;;5004041;28;20086;-72
2023/01/11 05:26:03;;;;;;;1.20;0.80;;;;;;;;;;5003689;28;20029;-72
2023/01/11 05:28:28;;;;;;;1.50;0.80;;;;;;;;;;4987221;28;20428;-72
2023/01/11 05:30:53;;;;;;;1.50;0.93;;;;;;;;;;5001588;28;20022;-72
2023/01/11 05:33:18;;;;;;;1.13;0.80;;;;;;;;;;4999709;28;20578;-72
2023/01/11 05:35:44;;;;;;;1.60;0.90;;;;;;;;;;5000623;28;20562;-71
2023/01/11 05:38:09;;;;;;;1.47;0.70;;;;;;;;;;5004014;28;20343;-71
2023/01/11 05:40:34;;;;;;;1.53;0.90;;;;;;;;;;5009377;28;20281;-71
2023/01/11 05:42:59;;;;;;;1.30;0.70;;;;;;;;;;4974907;28;20296;-70
2023/01/11 05:45:27;;;;;;;1.20;0.80;;;;;;;;;;5010313;28;20014;-72
2023/01/11 05:47:53;;;;;;;1.20;0.80;;;;;;;;;;5015332;28;20041;-71
2023/01/11 05:50:18;;;;;;;1.23;0.80;;;;;;;;;;4998753;28;20198;-71
2023/01/11 05:52:43;;;;;;;1.00;0.90;;;;;;;;;;5008794;28;20038;-70
2023/01/11 05:55:08;;;;;;;1.13;0.60;;;;;;;;;;5003232;28;20048;-71
2023/01/11 05:57:34;;;;;;;1.20;0.82;;;;;;;;;;5012025;28;20371;-72
2023/01/11 05:59:59;;;;;;;1.63;0.90;;;;;;;;;;5003272;28;20033;-70
2023/01/11 06:02:24;;;;;;;1.03;0.70;;;;;;;;;;5001691;28;20834;-71
2023/01/11 06:04:49;;;;;;;1.20;0.77;;;;;;;;;;5010823;28;20464;-73
2023/01/11 06:07:14;;;;;;;1.47;1.07;;;;;;;;;;5014599;28;20528;-73
2023/01/11 06:09:40;;;;;;;4.47;0.80;;;;;;;;;;5003526;28;20546;-73
2023/01/11 06:12:05;;;;;;;1.20;0.67;;;;;;;;;;5002851;28;20614;-74
2023/01/11 06:14:30;;;;;;;1.35;0.80;;;;;;;;;;5007712;28;20578;-73
2023/01/11 06:16:55;;;;;;;1.43;0.90;;;;;;;;;;4992776;28;20065;-71
2023/01/11 06:19:21;;;;;;;1.90;0.83;;;;;;;;;;4992736;28;20358;-73
2023/01/11 06:21:46;;;;;;;1.90;0.95;;;;;;;;;;5002948;28;20120;-73
2023/01/11 06:24:11;;;;;;;1.95;0.73;;;;;;;;;;5004902;28;20477;-73
2023/01/11 06:26:36;;;;;;;1.20;0.70;;;;;;;;;;5018472;28;20036;-72
2023/01/11 06:29:02;;;;;;;1.70;0.70;;;;;;;;;;5007615;28;20037;-73
2023/01/11 06:31:27;;;;;;;1.50;0.83;;;;;;;;;;5006496;28;20030;-73
2023/01/11 06:33:52;;;;;;;1.20;0.70;;;;;;;;;;5011755;28;20099;-72
2023/01/11 06:36:17;;;;;;;1.10;0.73;;;;;;;;;;5014894;28;20285;-72
2023/01/11 06:38:43;;;;;;;1.67;0.73;;;;;;;;;;5017026;28;20288;-72
2023/01/11 06:41:08;;;;;;;1.17;0.82;;;;;;;;;;4997378;28;20416;-72
2023/01/11 06:43:33;;;;;;;1.15;0.70;;;;;;;;;;5013654;28;20052;-73
2023/01/11 06:45:58;;;;;;;1.42;0.80;;;;;;;;;;5000823;28;20424;-72
2023/01/11 06:48:24;;;;;;;1.02;0.65;;;;;;;;;;5009345;28;20041;-72
2023/01/11 06:50:50;;;;;;;1.30;0.80;;;;;;;;;;5008882;28;20122;-72
2023/01/11 06:53:15;;;;;;;2.10;0.77;;;;;;;;;;4993203;28;20049;-71
2023/01/11 06:55:40;;;;;;;0.95;0.70;;;;;;;;;;4993972;28;20416;-71
2023/01/11 06:58:05;;;;;;;2.05;0.80;;;;;;;;;;5003806;28;20026;-70
2023/01/11 07:00:32;;;;;;;2.60;0.82;;;;;;;;;;5007279;28;20325;-71
2023/01/11 07:03:00;;;;;;;1.13;0.75;;;;;;;;;;5007232;28;20070;-73
2023/01/11 07:05:25;;;;;;;1.58;0.80;;;;;;;;;;5008302;28;20045;-75
2023/01/11 07:07:50;;;;;;;1.97;0.70;;;;;;;;;;5021029;28;20141;-71
2023/01/11 07:10:16;;;;;;;1.90;0.80;;;;;;;;;;5004405;28;20040;-72
2023/01/11 07:12:41;;;;;;;2.88;0.88;;;;;;;;;;4999932;28;20020;-74
2023/01/11 07:15:07;;;;;;;1.75;0.80;;;;;;;;;;5005105;28;20647;-72
2023/01/11 07:17:32;;;;;;;1.75;0.90;;;;;;;;;;4998033;28;20477;-72
2023/01/11 07:19:57;;;;;;;1.48;0.80;;;;;;;;;;5004455;28;20069;-73
2023/01/11 07:22:23;;;;;;;1.47;0.80;;;;;;;;;;5002251;28;20073;-71
2023/01/11 07:24:48;;;;;;;1.98;0.90;;;;;;;;;;5011220;28;20018;-74
2023/01/11 07:27:13;;;;;;;2.30;0.80;;;;;;;;;;5001252;28;20024;-74
2023/01/11 07:29:39;;;;;;;1.43;0.70;;;;;;;;;;5001571;28;20124;-75
2023/01/11 07:32:04;;;;;;;1.80;0.93;;;;;;;;;;5002839;28;20666;-74
2023/01/11 07:34:30;;;;;;;1.05;0.68;;;;;;;;;;4998772;28;20165;-75
2023/01/11 07:36:55;;;;;;;3.85;0.70;;;;;;;;;;5004689;28;20068;-74
2023/01/11 07:39:20;;;;;;;1.90;1.00;;;;;;;;;;4986286;28;20026;-73
2023/01/11 07:44:30;;;;;;;2.65;0.75;;;;;;;;;;5002947;28;21613;-73
2023/01/11 07:46:55;;;;;;;1.48;0.70;;;;;;;;;;4999045;28;20124;-74
2023/01/11 07:49:20;;;;;;;2.03;0.90;;;;;;;;;;5002712;28;20042;-73
2023/01/11 07:51:45;;;;;;;2.03;0.80;;;;;;;;;;4997866;28;20469;-73
2023/01/11 07:54:11;;;;;;;1.20;0.60;;;;;;;;;;5004054;28;20022;-74
2023/01/11 07:56:36;;;;;;;3.10;0.70;;;;;;;;;;5013070;28;20064;-74
2023/01/11 08:03:58;;;;;;;1.95;0.60;;;;;;;;;;5021980;28;20422;-64
2023/01/11 08:06:23;;;;;;;1.13;0.60;;;;;;;;;;5010540;28;20030;-69
2023/01/11 08:08:48;;;;;;;12.53;0.83;;;;;;;;;;5000953;28;20688;-68
2023/01/11 08:16:41;;;;;;;1.10;0.60;;;;;;;;;;5044302;28;20175;-67
2023/01/11 08:19:06;;;;;;;2.30;0.70;;;;;;;;;;5025323;28;20473;-61
2023/01/11 08:21:31;;;;;;;1.60;0.80;;;;;;;;;;5024819;28;20279;-65
2023/01/11 08:23:57;;;;;;;1.20;0.70;;;;;;;;;;5025517;28;20292;-70
2023/01/11 08:26:23;;;;;;;1.35;0.70;;;;;;;;;;5006008;28;20061;-68
2023/01/11 08:28:48;;;;;;;1.38;0.80;;;;;;;;;;5022355;28;20488;-63
2023/01/11 08:31:13;;;;;;;1.37;0.70;;;;;;;;;;5006611;28;20044;-62
2023/01/11 08:33:38;;;;;;;1.50;0.80;;;;;;;;;;5025739;28;20785;-64
2023/01/11 08:36:04;;;;;;;1.27;0.80;;;;;;;;;;5025663;28;20417;-69
2023/01/11 08:38:30;;;;;;;1.45;0.73;;;;;;;;;;5008083;28;20044;-61
2023/01/11 08:40:55;;;;;;;1.60;0.90;;;;;;;;;;5025719;28;20037;-66
2023/01/11 08:43:20;;;;;;;2.03;1.00;;;;;;;;;;5025172;28;21597;-65
2023/01/11 08:45:45;;;;;;;2.00;1.00;;;;;;;;;;5023238;28;20131;-63
2023/01/11 08:48:11;;;;;;;2.00;1.17;;;;;;;;;;5024527;28;20041;-59
2023/01/11 08:50:36;;;;;;;1.48;0.80;;;;;;;;;;5024252;28;20107;-64
2023/01/11 08:53:02;;;;;;;1.43;0.87;;;;;;;;;;5023864;28;20140;-67
2023/01/11 08:55:29;;;;;;;2.17;0.70;;;;;;;;;;5021741;28;20407;-66
2023/01/11 08:57:58;;;;;;;1.05;0.65;;;;;;;;;;5024828;28;20083;-59
2023/01/11 09:00:23;;;;;;;2.00;1.02;;;;;;;;;;4996755;28;20104;-68
2023/01/11 09:02:48;;;;;;;2.30;0.68;;;;;;;;;;5007030;28;20148;-69
2023/01/11 09:05:13;;;;;;;2.83;1.00;;;;;;;;;;5023861;28;20699;-61
2023/01/11 09:07:39;;;;;;;1.27;0.80;;;;;;;;;;4994528;28;20300;-69
2023/01/11 09:10:04;;;;;;;1.38;0.80;;;;;;;;;;5033821;28;20264;-67
2023/01/11 09:12:31;;;;;;;1.45;0.90;;;;;;;;;;5025319;28;20021;-63
2023/01/11 09:14:56;;;;;;;1.73;0.95;;;;;;;;;;5024679;28;20107;-70
2023/01/11 09:17:22;;;;;;;1.58;0.90;;;;;;;;;;5025424;28;20340;-63
2023/01/11 09:19:47;;;;;;;1.73;1.02;;;;;;;;;;5025151;28;20037;-66
2023/01/11 09:22:12;;;;;;;1.37;0.77;;;;;;;;;;5007025;28;20045;-64
2023/01/11 09:24:38;;;;;;;1.48;0.75;;;;;;;;;;5029861;28;20706;-64
2023/01/11 09:27:03;;;;;;;1.20;0.60;;;;;;;;;;5013759;28;20041;-68
2023/01/11 09:29:29;;;;;;;2.42;0.80;;;;;;;;;;5016648;28;20125;-69
2023/01/11 09:31:54;;;;;;;1.52;0.77;;;;;;;;;;5019860;28;20433;-65
2023/01/11 09:34:19;;;;;;;1.60;0.90;;;;;;;;;;5019657;28;20037;-65
2023/01/11 09:36:47;;;;;;;1.45;0.70;;;;;;;;;;5004238;28;20436;-59
2023/01/11 09:39:15;;;;;;;1.63;0.80;;;;;;;;;;5017705;28;20053;-69
2023/01/11 09:41:50;;;;;;;2.10;0.93;;;;;;;;;;5025419;28;20037;-64
2023/01/11 09:44:18;;;;;;;1.75;1.00;;;;;;;;;;5025023;28;20056;-63
2023/01/11 09:46:45;;;;;;;1.40;0.90;;;;;;;;;;5009578;28;20033;-62
2023/01/11 09:49:22;;;;;;;1.38;0.80;;;;;;;;;;5032201;28;20048;-64
2023/01/11 09:51:48;;;;;;;2.47;0.82;;;;;;;;;;5022964;28;20085;-62
2023/01/11 09:54:21;;;;;;;1.25;0.70;;;;;;;;;;5024492;28;20044;-67
2023/01/11 09:56:50;;;;;;;1.48;0.85;;;;;;;;;;5024334;28;20064;-65
2023/01/11 09:59:28;;;;;;;1.42;0.70;;;;;;;;;;5023739;28;20034;-61
2023/01/11 10:02:04;;;;;;;2.03;1.05;;;;;;;;;;5008584;28;20543;-65
2023/01/11 10:04:50;;;;;;;2.03;0.80;;;;;;;;;;5025478;28;20137;-68
2023/01/11 10:07:36;;;;;;;2.10;0.68;;;;;;;;;;5023842;28;20041;-67
2023/01/11 10:10:05;;;;;;;1.48;0.80;;;;;;;;;;5025999;28;20030;-65
2023/01/11 10:12:55;;;;;;;1.10;0.70;;;;;;;;;;5024959;28;20116;-67
2023/01/11 10:15:26;;;;;;;1.85;0.85;;;;;;;;;;5024761;28;20431;-64
2023/01/11 10:17:54;;;;;;;2.03;0.80;;;;;;;;;;5032333;28;20041;-67
2023/01/11 10:20:26;;;;;;;1.52;0.80;;;;;;;;;;5008055;28;20479;-65
2023/01/11 10:22:56;;;;;;;2.53;0.90;;;;;;;;;;5006373;28;20441;-69
2023/01/11 10:25:29;;;;;;;1.23;0.65;;;;;;;;;;5022545;28;20046;-63
2023/01/11 10:27:59;;;;;;;1.45;0.70;;;;;;;;;;5010474;28;20133;-72
2023/01/11 10:30:40;;;;;;;1.48;0.70;;;;;;;;;;5015638;28;20428;-62
2023/01/11 10:38:45;;;;;;;2.17;0.73;;;;;;;;;;5007576;28;20068;-67
2023/01/11 10:41:24;;;;;;;1.80;0.80;;;;;;;;;;4988663;28;20393;-71
2023/01/11 10:43:59;;;;;;;1.30;0.80;;;;;;;;;;5005246;28;20049;-67
2023/01/11 10:46:24;;;;;;;0.98;0.60;;;;;;;;;;5003051;28;20505;-69
2023/01/11 10:48:50;;;;;;;1.25;0.60;;;;;;;;;;5013059;28;20029;-62
2023/01/11 10:51:28;;;;;;;1.00;0.55;;;;;;;;;;5024116;28;20048;-68
2023/01/11 10:53:59;;;;;;;1.25;0.80;;;;;;;;;;5007523;28;20064;-71
2023/01/11 10:56:38;;;;;;;1.73;0.70;;;;;;;;;;5017472;28;20056;-65
2023/01/11 10:59:05;;;;;;;1.30;0.73;;;;;;;;;;4989167;28;20225;-69
2023/01/11 11:01:53;;;;;;;1.40;0.90;;;;;;;;;;5008745;28;20042;-67
2023/01/11 11:04:24;;;;;;;1.10;0.60;;;;;;;;;;5004785;28;20513;-72
2023/01/11 11:06:53;;;;;;;2.25;0.70;;;;;;;;;;5004780;28;20022;-67
2023/01/11 11:09:21;;;;;;;1.52;0.82;;;;;;;;;;5028912;28;20067;-71
2023/01/11 11:11:51;;;;;;;1.20;0.75;;;;;;;;;;5007125;28;20038;-66
2023/01/11 11:14:17;;;;;;;1.77;0.80;;;;;;;;;;5007770;28;20050;-65
2023/01/11 11:16:52;;;;;;;2.35;0.60;;;;;;;;;;5008848;28;20033;-71
2023/01/11 11:19:18;;;;;;;1.25;0.60;;;;;;;;;;5008187;28;20046;-70
2023/01/11 11:21:44;;;;;;;2.20;1.08;;;;;;;;;;5000830;28;20470;-65
2023/01/11 11:24:26;;;;;;;1.90;0.77;;;;;;;;;;5007559;28;20064;-67
2023/01/11 11:26:56;;;;;;;1.58;0.70;;;;;;;;;;5007192;28;20297;-68
2023/01/11 11:29:21;;;;;;;;;;;;;;;;;;5004003;28;20046;-68
2023/01/11 11:31:47;;;;;;;1.60;0.60;;;;;;;;;;5001029;28;19917;-67
2023/01/11 11:34:13;;;;;;;1.53;0.70;;;;;;;;;;5007586;28;20050;-68
2023/01/11 11:36:45;;;;;;;1.40;0.68;;;;;;;;;;5006250;28;20076;-67
2023/01/11 11:39:29;;;;;;;1.20;0.70;;;;;;;;;;5008453;28;20067;-64
2023/01/11 11:42:04;;;;;;;2.67;0.70;;;;;;;;;;5007308;28;20030;-65
2023/01/11 11:44:29;;;;;;;1.40;0.70;;;;;;;;;;4989690;28;20524;-69
2023/01/11 11:46:58;;;;;;;1.17;0.50;;;;;;;;;;5009244;28;20076;-63
2023/01/11 11:49:23;;;;;;;1.83;0.60;;;;;;;;;;5007633;28;20292;-71
2023/01/11 11:51:49;;;;;;;1.30;0.70;;;;;;;;;;5007886;28;20883;-66
2023/01/11 11:54:18;;;;;;;2.20;0.57;;;;;;;;;;5006082;28;20033;-66
2023/01/11 11:56:43;;;;;;;1.55;0.82;;;;;;;;;;5009744;28;20292;-67
2023/01/11 11:59:11;;;;;;;3.23;0.70;;;;;;;;;;5002548;28;20551;-63
2023/01/11 12:01:38;;;;;;;5.10;0.80;;;;;;;;;;5006394;28;20041;-63
2023/01/11 12:04:32;;;;;;;2.25;0.75;;;;;;;;;;4994690;28;20026;-64
2023/01/11 12:07:04;;;;;;;1.60;0.60;;;;;;;;;;4999597;28;20497;-67
2023/01/11 12:09:30;;;;;;;1.38;0.60;;;;;;;;;;5005682;28;20018;-62
2023/01/11 12:11:55;;;;;;;1.40;0.70;;;;;;;;;;4988060;28;20501;-69
2023/01/11 12:14:27;;;;;;;1.40;0.67;;;;;;;;;;5005894;28;20090;-66
2023/01/11 12:16:52;;;;;;;1.02;0.55;;;;;;;;;;5006488;28;20065;-70
2023/01/11 12:19:37;;;;;;;1.30;0.60;;;;;;;;;;4990943;28;20037;-66
2023/01/11 12:22:28;;;;;;;1.00;0.60;;;;;;;;;;5006039;28;20324;-64
2023/01/11 12:25:04;;;;;;;1.42;0.77;;;;;;;;;;5001355;28;20030;-69
2023/01/11 12:27:29;;;;;;;1.98;0.60;;;;;;;;;;5007743;28;20064;-69
2023/01/11 12:30:07;;;;;;;1.13;0.70;;;;;;;;;;5006705;28;20121;-70
2023/01/11 12:32:51;;;;;;;1.27;0.60;;;;;;;;;;5003011;28;20042;-68
2023/01/11 12:35:16;;;;;;;1.35;0.60;;;;;;;;;;5006162;28;20084;-62
2023/01/11 12:38:02;;;;;;;1.67;0.60;;;;;;;;;;5006142;28;20034;-66
2023/01/11 12:40:35;;;;;;;2.10;0.63;;;;;;;;;;5005060;28;20406;-65
2023/01/11 12:43:19;;;;;;;1.20;0.60;;;;;;;;;;4987949;28;20433;-68
2023/01/11 12:45:47;;;;;;;1.52;0.70;;;;;;;;;;5016658;28;20033;-67
2023/01/11 12:48:18;;;;;;;1.60;0.70;;;;;;;;;;5026289;28;20033;-69
2023/01/11 12:50:56;;;;;;;1.27;0.70;;;;;;;;;;5025363;28;20034;-65
2023/01/11 12:53:21;;;;;;;1.30;0.70;;;;;;;;;;5007689;28;20148;-64
2023/01/11 12:55:46;;;;;;;1.50;0.80;;;;;;;;;;5037163;28;20052;-68
2023/01/11 12:58:12;;;;;;;2.03;0.90;;;;;;;;;;5024546;28;20036;-70
2023/01/11 13:00:49;;;;;;;1.15;0.60;;;;;;;;;;5024784;28;20022;-66
2023/01/11 13:03:25;;;;;;;1.20;0.65;;;;;;;;;;5024836;28;20131;-65
2023/01/11 13:05:50;;;;;;;1.75;0.73;;;;;;;;;;5023631;28;20439;-65
2023/01/11 13:08:15;;;;;;;1.20;0.60;;;;;;;;;;5025130;28;20038;-68
2023/01/11 13:10:49;;;;;;;1.50;0.60;;;;;;;;;;5024130;28;20033;-68
2023/01/11 13:13:18;;;;;;;1.35;0.70;;;;;;;;;;5024293;28;20548;-67
2023/01/11 13:15:50;;;;;;;2.40;0.80;;;;;;;;;;5024925;28;20028;-69
2023/01/11 13:18:19;;;;;;;1.08;0.60;;;;;;;;;;4990040;28;20065;-66
2023/01/11 13:21:02;;;;;;;1.27;0.70;;;;;;;;;;5022981;28;20145;-69
2023/01/11 13:23:45;;;;;;;1.15;0.60;;;;;;;;;;5026770;28;20478;-69
2023/01/11 13:26:16;;;;;;;1.50;0.90;;;;;;;;;;5006360;28;20068;-70
2023/01/11 13:28:42;;;;;;;2.40;0.85;;;;;;;;;;5020940;28;20493;-68
2023/01/11 13:31:08;;;;;;;1.30;0.70;;;;;;;;;;5019350;28;20056;-67
2023/01/11 13:33:33;;;;;;;6.78;2.67;;;;;;;;;;5003572;28;20021;-70
2023/01/11 13:36:15;;;;;;;19.30;7.87;;;;;;;;;;5004692;28;20052;-74
2023/01/11 13:38:59;;;;;;;26.58;9.30;;;;;;;;;;5023390;28;20881;-71
2023/01/11 13:41:32;;;;;;;71.20;24.45;;;;;;;;;;5038309;28;20408;-67
2023/01/11 13:44:27;;;;;;;114.38;36.03;;;;;;;;;;5040637;28;20504;-73
2023/01/11 13:47:01;;;;;;;191.02;63.15;;;;;;;;;;4996883;28;20048;-73
2023/01/11 13:49:32;;;;;;;204.63;65.30;;;;;;;;;;5040737;28;20034;-68
2023/01/11 13:51:58;;;;;;;203.52;69.65;;;;;;;;;;5040147;28;20396;-74
2023/01/11 13:54:26;;;;;;;207.45;70.22;;;;;;;;;;5025590;28;20645;-65
2023/01/11 13:56:54;;;;;;;220.20;76.22;;;;;;;;;;5024304;28;20041;-68
2023/01/11 13:59:34;;;;;;;211.85;70.72;;;;;;;;;;5024671;28;20132;-65
2023/01/11 14:02:13;;;;;;;154.47;54.00;;;;;;;;;;5006938;28;20336;-68
2023/01/11 14:04:38;;;;;;;50.67;19.10;;;;;;;;;;5006114;28;20041;-74
2023/01/11 14:07:03;;;;;;;34.40;13.53;;;;;;;;;;5021517;28;20385;-68
2023/01/11 14:09:31;;;;;;;29.30;11.50;;;;;;;;;;5025680;28;20557;-58
2023/01/11 14:12:09;;;;;;;14.88;6.25;;;;;;;;;;5006421;28;20477;-63
2023/01/11 14:14:47;;;;;;;9.55;4.72;;;;;;;;;;5020440;28;20049;-72
2023/01/11 14:17:26;;;;;;;21.85;9.13;;;;;;;;;;5009593;28;20156;-70
2023/01/11 14:19:55;;;;;;;26.05;9.68;;;;;;;;;;5010233;28;20655;-67
2023/01/11 14:22:29;;;;;;;38.90;12.13;;;;;;;;;;5041343;28;20365;-69
2023/01/11 14:25:04;;;;;;;37.33;12.95;;;;;;;;;;5024372;28;20025;-62
2023/01/11 14:27:48;;;;;;;28.27;11.55;;;;;;;;;;5042936;28;20033;-61
2023/01/11 14:30:36;;;;;;;28.65;11.60;;;;;;;;;;5009012;28;20448;-68
2023/01/11 14:33:10;;;;;;;24.98;10.57;;;;;;;;;;4999936;28;20041;-66
2023/01/11 14:35:38;;;;;;;16.40;7.40;;;;;;;;;;5006424;28;20045;-66
2023/01/11 14:38:22;;;;;;;13.52;6.10;;;;;;;;;;5024211;28;20072;-68
2023/01/11 14:41:06;;;;;;;11.98;4.70;;;;;;;;;;5024770;28;20037;-64
2023/01/11 14:43:50;;;;;;;11.35;4.45;;;;;;;;;;4993259;28;20244;-70
2023/01/11 14:46:24;;;;;;;11.65;5.22;;;;;;;;;;5011321;28;20145;-66
2023/01/11 14:48:52;;;;;;;13.93;6.63;;;;;;;;;;5028581;28;20017;-68
2023/01/11 14:51:20;;;;;;;23.35;7.97;;;;;;;;;;5029233;28;20028;-62
2023/01/11 14:53:50;;;;;;;18.90;7.50;;;;;;;;;;5027078;28;20088;-61
2023/01/11 14:56:16;;;;;;;;;;;;;;;;;;4991519;28;20474;-64
2023/01/11 14:58:42;;;;;;;21.65;8.32;;;;;;;;;;5020785;28;20067;-65
2023/01/11 15:01:07;;;;;;;22.05;9.18;;;;;;;;;;4997332;28;20398;-68
2023/01/11 15:03:44;;;;;;;22.67;8.70;;;;;;;;;;4989039;28;20057;-66
2023/01/11 15:06:12;;;;;;;20.90;8.50;;;;;;;;;;5007345;28;20448;-71
2023/01/11 15:08:41;;;;;;;19.23;8.43;;;;;;;;;;4987645;28;20070;-73
2023/01/11 15:11:25;;;;;;;20.60;8.73;;;;;;;;;;4985087;28;20508;-64
2023/01/11 15:13:53;;;;;;;19.33;8.38;;;;;;;;;;5008738;28;20543;-65
2023/01/11 15:19:04;;;;;;;21.45;9.07;;;;;;;;;;4996567;28;20308;-72
2023/01/11 15:21:29;;;;;;;22.55;9.25;;;;;;;;;;5007823;28;20048;-71
2023/01/11 15:23:55;;;;;;;18.73;9.00;;;;;;;;;;5002680;28;20042;-63
2023/01/11 15:26:21;;;;;;;21.95;9.18;;;;;;;;;;5003377;28;20117;-72
2023/01/11 15:28:48;;;;;;;21.55;9.27;;;;;;;;;;4995154;28;20073;-61